Time;durP1;ratioP1;P1;durP2;ratioP2;P2;SDS_P1;SDS_P2;PMS_P1;PMS_P2;Temp;Humidity;BMP_temperature;BMP_pressure;BME280_temperature;BME280_humidity;BME280_pressure;Samples;Min_cycle;Max_cycle;Signal;HPM_P1;HPM_P2
2023/05/16 00:01:56;;;;;;;175.55;27.63;;;;;;;26.26;50.85;97864.34;5085276;28;20640;-63
2023/05/16 00:04:26;;;;;;;176.60;27.08;;;;;;;26.26;51.44;97875.19;5085112;28;20055;-63
2023/05/16 00:06:55;;;;;;;231.20;30.80;;;;;;;26.29;51.35;97880.00;5085251;28;20415;-63
2023/05/16 00:09:25;;;;;;;215.55;29.02;;;;;;;26.27;51.73;97876.81;5084896;28;20110;-62
2023/05/16 00:11:55;;;;;;;194.63;29.55;;;;;;;26.25;51.60;97892.59;5085602;28;20075;-65
2023/05/16 00:14:25;;;;;;;228.20;28.55;;;;;;;26.24;52.35;97885.59;5084964;28;20522;-63
2023/05/16 00:16:59;;;;;;;252.68;31.05;;;;;;;26.25;51.29;97884.44;5084656;28;20044;-63
2023/05/16 00:19:29;;;;;;;222.02;30.67;;;;;;;26.21;52.56;97888.91;5084633;28;20051;-62
2023/05/16 00:21:59;;;;;;;206.07;27.00;;;;;;;26.21;52.46;97886.19;5084026;28;20439;-65
2023/05/16 00:24:29;;;;;;;221.30;27.95;;;;;;;26.21;52.68;97895.13;5065963;28;20136;-64
2023/05/16 00:26:58;;;;;;;221.70;27.98;;;;;;;26.21;52.53;97892.44;5087139;28;20048;-64
2023/05/16 00:29:27;;;;;;;228.80;28.02;;;;;;;26.24;52.12;97896.44;5069215;28;20051;-64
2023/05/16 00:31:58;;;;;;;246.75;28.35;;;;;;;26.22;53.07;97904.91;5069829;28;20052;-65
2023/05/16 00:34:27;;;;;;;239.02;29.58;;;;;;;26.25;52.22;97898.03;5082016;28;20105;-63
2023/05/16 00:36:57;;;;;;;229.02;27.92;;;;;;;26.23;52.79;97908.41;5083670;28;20051;-66
2023/05/16 00:39:26;;;;;;;225.52;27.85;;;;;;;26.22;51.72;97907.59;5067534;28;20051;-63
2023/05/16 00:41:56;;;;;;;239.82;28.58;;;;;;;26.22;51.19;97914.94;5068857;28;20829;-64
2023/05/16 00:44:26;;;;;;;235.45;31.58;;;;;;;26.23;51.85;97922.00;5068120;28;20689;-63
2023/05/16 00:46:57;;;;;;;236.60;29.48;;;;;;;26.26;51.28;97921.34;5068879;28;20063;-63
2023/05/16 00:49:26;;;;;;;222.15;26.95;;;;;;;26.26;52.20;97926.78;5086769;28;20047;-63
2023/05/16 00:51:59;;;;;;;236.13;29.88;;;;;;;26.24;52.04;97924.41;5069576;28;20044;-64
2023/05/16 00:54:30;;;;;;;233.23;28.42;;;;;;;26.24;52.29;97929.81;5070315;28;20719;-66
2023/05/16 00:57:00;;;;;;;255.85;30.20;;;;;;;26.23;52.25;97930.94;5067232;28;20135;-63
2023/05/16 00:59:29;;;;;;;225.63;27.85;;;;;;;26.23;51.67;97935.56;5070543;28;20052;-62
2023/05/16 01:01:59;;;;;;;243.23;29.10;;;;;;;26.24;51.87;97945.31;5067035;28;20044;-63
2023/05/16 01:04:31;;;;;;;267.17;28.35;;;;;;;26.28;51.97;97946.28;5081702;28;20036;-62
2023/05/16 01:07:01;;;;;;;261.50;28.30;;;;;;;26.26;50.41;97945.78;5069664;28;20089;-63
2023/05/16 01:09:34;;;;;;;221.82;25.88;;;;;;;26.28;52.40;97952.53;5069770;28;20054;-67
2023/05/16 01:12:19;;;;;;;238.32;28.45;;;;;;;26.28;52.20;97952.53;5049623;28;20464;-65
2023/05/16 01:15:00;;;;;;;275.98;31.40;;;;;;;26.33;51.88;97962.44;5068425;28;20040;-65
2023/05/16 01:17:51;;;;;;;264.15;28.92;;;;;;;26.30;52.23;97957.63;5066597;28;20593;-63
2023/05/16 01:20:37;;;;;;;273.67;29.10;;;;;;;26.29;52.88;97969.59;5072172;28;20148;-65
2023/05/16 01:23:38;;;;;;;268.23;29.60;;;;;;;26.32;52.06;97974.41;5069193;28;20051;-64
2023/05/16 01:26:26;;;;;;;249.05;28.48;;;;;;;26.30;52.16;97980.16;5064204;28;20117;-64
2023/05/16 01:28:56;;;;;;;251.05;26.23;;;;;;;26.30;52.99;97998.34;5087961;28;20630;-64
2023/05/16 01:31:26;;;;;;;253.50;28.05;;;;;;;26.31;52.57;98000.75;5069293;28;20439;-63
2023/05/16 01:33:55;;;;;;;255.32;27.60;;;;;;;26.30;52.72;98004.59;5087851;28;20055;-64
2023/05/16 01:36:51;;;;;;;254.38;28.35;;;;;;;26.32;52.59;98009.72;5086494;28;20064;-64
2023/05/16 01:40:08;;;;;;;266.65;28.02;;;;;;;26.36;53.03;98006.06;5080837;28;20130;-65
2023/05/16 01:42:44;;;;;;;267.00;30.05;;;;;;;26.38;52.94;98006.53;5004461;28;20177;-64
2023/05/16 01:45:26;;;;;;;222.35;26.63;;;;;;;26.39;52.81;98012.78;5021295;28;20802;-64
2023/05/16 01:48:32;;;;;;;229.55;26.35;;;;;;;26.41;52.57;98016.00;5052740;28;20040;-66
2023/05/16 01:51:03;;;;;;;258.38;28.00;;;;;;;26.48;52.77;98019.03;5032420;28;20048;-65
2023/05/16 01:53:38;;;;;;;221.88;25.38;;;;;;;26.61;52.96;98015.44;5087534;28;20418;-66
2023/05/16 01:56:13;;;;;;;226.88;25.60;;;;;;;26.85;52.54;98015.09;5063788;28;20064;-64
2023/05/16 01:58:46;;;;;;;212.30;24.77;;;;;;;27.13;51.61;98023.81;5064460;28;20582;-65
2023/05/16 02:01:15;;;;;;;236.90;28.65;;;;;;;27.29;51.06;98019.50;5064508;28;20080;-64
2023/05/16 02:03:45;;;;;;;221.90;24.98;;;;;;;27.38;50.97;98014.88;5085553;28;20549;-65
2023/05/16 02:06:14;;;;;;;218.85;25.98;;;;;;;27.44;51.54;98016.31;5064675;28;20110;-64
2023/05/16 02:08:44;;;;;;;211.73;23.27;;;;;;;27.44;50.88;98021.75;5065239;28;20052;-65
2023/05/16 02:11:13;;;;;;;188.52;22.75;;;;;;;27.50;50.41;98017.78;5066289;28;20526;-65
2023/05/16 02:13:43;;;;;;;201.07;22.83;;;;;;;27.65;50.31;98022.78;5051136;28;20062;-64
2023/05/16 02:16:13;;;;;;;183.02;20.38;;;;;;;27.87;49.83;98029.97;5067974;28;20048;-66
2023/05/16 02:18:43;;;;;;;179.00;21.98;;;;;;;28.10;50.03;98019.72;5049690;28;20160;-64
2023/05/16 02:21:14;;;;;;;172.85;22.75;;;;;;;28.32;47.55;98024.16;5049527;28;20044;-65
2023/05/16 02:23:43;;;;;;;156.35;21.10;;;;;;;28.47;48.15;98021.69;5065438;28;20048;-65
2023/05/16 02:26:12;;;;;;;181.25;21.45;;;;;;;28.63;46.85;98024.69;5067921;28;20048;-65
2023/05/16 02:28:42;;;;;;;170.35;19.08;;;;;;;28.94;47.01;98019.75;5069072;28;20072;-64
2023/05/16 02:31:11;;;;;;;170.60;20.63;;;;;;;29.21;46.90;98025.91;5066646;28;20747;-64
2023/05/16 02:33:41;;;;;;;146.05;21.05;;;;;;;29.37;46.34;98024.19;5086394;28;20123;-64
2023/05/16 02:36:10;;;;;;;156.40;20.23;;;;;;;29.48;45.37;98019.94;5068565;28;20197;-65
2023/05/16 02:38:42;;;;;;;143.75;21.00;;;;;;;29.65;45.62;98019.03;5086384;28;20064;-66
2023/05/16 02:41:12;;;;;;;152.07;22.73;;;;;;;29.88;45.61;98025.75;5068089;28;20135;-65
2023/05/16 02:43:43;;;;;;;134.18;18.52;;;;;;;30.06;45.28;98040.03;5065258;28;20048;-65
2023/05/16 02:46:24;;;;;;;157.80;24.30;;;;;;;30.11;43.69;98037.09;5068080;28;20055;-64
2023/05/16 02:48:54;;;;;;;153.63;21.08;;;;;;;30.18;43.86;98042.84;5068536;28;20120;-66
2023/05/16 02:51:25;;;;;;;129.93;19.95;;;;;;;30.13;44.61;98056.69;5067508;28;20047;-64
2023/05/16 02:54:01;;;;;;;141.93;18.13;;;;;;;29.97;44.15;98061.16;5068796;28;20135;-65
2023/05/16 02:56:31;;;;;;;139.65;19.73;;;;;;;29.82;45.71;98059.84;5067802;28;20067;-65
2023/05/16 02:59:00;;;;;;;133.68;20.92;;;;;;;29.81;45.47;98055.50;5065096;28;20143;-67
2023/05/16 03:01:30;;;;;;;125.10;19.15;;;;;;;29.93;45.77;98057.50;5065025;28;20071;-64
2023/05/16 03:04:00;;;;;;;147.95;19.52;;;;;;;30.09;45.62;98061.25;5063347;28;20051;-64
2023/05/16 03:06:30;;;;;;;126.38;21.05;;;;;;;29.99;45.58;98058.91;5066340;28;20067;-64
2023/05/16 03:08:59;;;;;;;121.07;18.17;;;;;;;30.06;45.68;98054.50;5066154;28;20055;-64
2023/05/16 03:11:28;;;;;;;109.25;18.17;;;;;;;30.14;46.15;98056.34;5077618;28;20044;-65
2023/05/16 03:13:58;;;;;;;126.07;20.17;;;;;;;30.02;46.49;98060.97;5068195;28;20071;-66
2023/05/16 03:16:29;;;;;;;128.48;20.73;;;;;;;29.96;46.17;98062.31;5085499;28;20044;-65
2023/05/16 03:18:58;;;;;;;135.00;23.17;;;;;;;29.87;46.29;98059.63;5084569;28;20048;-65
2023/05/16 03:21:27;;;;;;;127.85;20.27;;;;;;;29.77;46.61;98057.31;5065058;28;20102;-63
2023/05/16 03:23:57;;;;;;;130.10;20.90;;;;;;;29.75;46.33;98054.09;5068519;28;20131;-67
2023/05/16 03:26:27;;;;;;;126.40;22.33;;;;;;;29.98;46.59;98060.84;5059028;28;20059;-63
2023/05/16 03:28:56;;;;;;;114.57;20.55;;;;;;;29.93;46.85;98057.50;5067902;28;20040;-66
2023/05/16 03:31:25;;;;;;;135.60;21.10;;;;;;;30.03;46.78;98063.38;5084650;28;20040;-64
2023/05/16 03:33:55;;;;;;;102.93;19.38;;;;;;;29.96;46.74;98063.13;5047615;28;20070;-64
2023/05/16 03:36:26;;;;;;;110.35;19.85;;;;;;;29.87;47.02;98059.63;5075821;28;20040;-64
2023/05/16 03:38:55;;;;;;;113.57;21.27;;;;;;;29.87;46.58;98067.81;5084243;28;20041;-63
2023/05/16 03:41:25;;;;;;;129.27;21.00;;;;;;;29.80;46.84;98065.63;5062487;28;20063;-64
2023/05/16 03:43:54;;;;;;;126.07;23.40;;;;;;;29.85;46.35;98059.97;5059240;28;20057;-64
2023/05/16 03:46:24;;;;;;;101.18;21.75;;;;;;;29.86;46.07;98072.50;5074899;28;20051;-65
2023/05/16 03:48:53;;;;;;;101.03;21.67;;;;;;;30.05;45.26;98069.28;5084803;28;20055;-65
2023/05/16 03:51:22;;;;;;;124.38;22.10;;;;;;;30.22;43.93;98074.63;5082753;28;20068;-65
2023/05/16 03:53:51;;;;;;;95.50;21.45;;;;;;;30.29;44.86;98083.06;5084667;28;20059;-64
2023/05/16 03:56:21;;;;;;;95.32;22.60;;;;;;;30.50;44.80;98074.81;5083609;28;20047;-65
2023/05/16 03:58:50;;;;;;;93.63;22.40;;;;;;;30.50;44.75;98079.50;5084858;28;20044;-65
2023/05/16 04:01:20;;;;;;;86.40;22.60;;;;;;;30.50;44.97;98074.03;5088547;28;20053;-66
2023/05/16 04:03:49;;;;;;;117.93;22.15;;;;;;;30.36;45.15;98077.03;5088831;28;20367;-61
2023/05/16 04:06:20;;;;;;;99.28;24.40;;;;;;;30.46;44.65;98084.84;5089007;28;20048;-64
2023/05/16 04:08:49;;;;;;;84.53;21.83;;;;;;;30.56;44.91;98078.94;5089569;28;20143;-65
2023/05/16 04:11:20;;;;;;;91.68;21.38;;;;;;;30.56;45.26;98083.63;5087596;28;20048;-63
2023/05/16 04:13:50;;;;;;;69.93;22.70;;;;;;;30.59;44.62;98086.47;5088463;28;20131;-63
2023/05/16 04:16:19;;;;;;;80.32;20.05;;;;;;;30.87;44.63;98091.31;5086574;28;20051;-63
2023/05/16 04:18:49;;;;;;;79.80;18.65;;;;;;;30.88;43.49;98099.19;5059788;28;20046;-63
2023/05/16 04:21:18;;;;;;;55.38;15.93;;;;;;;30.68;43.38;98089.09;5084916;28;20048;-65
2023/05/16 04:23:47;;;;;;;58.47;15.98;;;;;;;30.85;43.81;98097.09;5088557;28;20048;-66
2023/05/16 04:26:17;;;;;;;37.95;15.80;;;;;;;30.83;43.78;98093.94;5070378;28;20506;-63
2023/05/16 04:28:46;;;;;;;39.47;14.27;;;;;;;30.92;43.22;98097.38;5087493;28;20036;-64
2023/05/16 04:31:16;;;;;;;45.80;15.75;;;;;;;30.98;42.57;98093.25;5089649;28;20132;-64
2023/05/16 04:33:45;;;;;;;42.33;14.98;;;;;;;31.09;42.69;98088.97;5086666;28;20237;-63
2023/05/16 04:36:15;;;;;;;53.72;15.65;;;;;;;31.25;42.45;98091.81;5086578;28;20410;-62
2023/05/16 04:38:46;;;;;;;43.08;14.68;;;;;;;31.27;40.91;98091.47;5068430;28;20460;-64
2023/05/16 04:41:15;;;;;;;38.83;15.95;;;;;;;31.18;41.29;98091.59;5050620;28;20059;-64
2023/05/16 04:43:45;;;;;;;44.72;18.10;;;;;;;31.64;39.01;98085.63;5086548;28;20068;-64
2023/05/16 04:46:16;;;;;;;40.63;18.17;;;;;;;31.56;40.49;98083.03;5086217;28;20048;-62
2023/05/16 04:48:46;;;;;;;46.03;19.63;;;;;;;31.45;40.87;98093.63;5085907;28;20048;-66
2023/05/16 04:51:15;;;;;;;40.30;19.27;;;;;;;31.38;40.17;98095.34;5085418;28;20048;-61
2023/05/16 04:53:44;;;;;;;49.33;19.50;;;;;;;31.25;40.33;98108.22;5085884;28;20143;-63
2023/05/16 04:56:14;;;;;;;42.22;19.98;;;;;;;31.14;41.48;98107.09;5085025;28;20139;-65
2023/05/16 04:58:43;;;;;;;41.58;18.45;;;;;;;31.14;41.64;98105.16;5052920;28;20132;-62
2023/05/16 05:01:13;;;;;;;42.20;18.33;;;;;;;31.37;41.78;98104.69;5084574;28;20043;-64
2023/05/16 05:03:43;;;;;;;41.65;15.63;;;;;;;31.46;41.08;98105.38;5077807;28;20074;-62
2023/05/16 05:06:15;;;;;;;41.10;16.45;;;;;;;31.31;42.58;98108.81;5058080;28;20040;-60
2023/05/16 05:08:44;;;;;;;53.92;16.00;;;;;;;31.42;42.30;98110.75;5055605;28;20044;-62
2023/05/16 05:11:14;;;;;;;43.83;15.68;;;;;;;31.37;41.75;98104.69;5083484;28;20058;-60
2023/05/16 05:13:44;;;;;;;31.10;14.38;;;;;;;31.47;41.51;98106.97;5060707;28;20056;-60
2023/05/16 05:16:14;;;;;;;40.13;15.93;;;;;;;31.44;40.50;98116.66;5083285;28;20062;-58
2023/05/16 05:18:43;;;;;;;37.90;15.82;;;;;;;31.75;41.39;98107.06;5067193;28;20044;-62
2023/05/16 05:21:13;;;;;;;34.53;15.95;;;;;;;31.76;40.42;98104.00;5084336;28;20067;-62
2023/05/16 05:23:42;;;;;;;38.05;16.80;;;;;;;31.64;41.00;98112.25;5063866;28;20127;-62
2023/05/16 05:26:12;;;;;;;34.85;15.93;;;;;;;31.75;41.34;98107.88;5063325;28;20048;-65
2023/05/16 05:28:41;;;;;;;33.83;16.00;;;;;;;31.35;40.89;98109.72;5065606;28;20059;-62
2023/05/16 05:31:17;;;;;;;43.90;16.20;;;;;;;31.17;41.49;98109.13;5084841;28;20093;-63
2023/05/16 05:33:47;;;;;;;52.88;16.30;;;;;;;31.08;43.04;98111.97;5085718;28;20050;-61
2023/05/16 05:36:16;;;;;;;41.33;16.55;;;;;;;30.89;41.77;98110.94;5084643;28;20051;-59
2023/05/16 05:38:46;;;;;;;26.50;15.18;;;;;;;31.13;41.09;98109.03;5062910;28;20171;-59
2023/05/16 05:41:15;;;;;;;36.92;15.02;;;;;;;31.40;40.78;98104.81;5080367;28;20048;-63
2023/05/16 05:43:45;;;;;;;27.17;13.35;;;;;;;31.59;40.41;98099.59;5070677;28;20492;-62
2023/05/16 05:46:15;;;;;;;35.40;14.77;;;;;;;31.87;42.42;98096.88;5083638;28;20056;-60
2023/05/16 05:48:45;;;;;;;27.98;12.50;;;;;;;31.92;41.80;98099.38;5085709;28;20044;-60
2023/05/16 05:51:15;;;;;;;28.58;12.63;;;;;;;31.95;40.81;98101.44;5068033;28;20528;-63
2023/05/16 05:53:44;;;;;;;29.38;11.93;;;;;;;32.06;40.45;98099.78;5045710;28;20045;-60
2023/05/16 05:56:13;;;;;;;28.10;10.88;;;;;;;32.29;40.03;98099.28;5068228;28;20040;-60
2023/05/16 05:58:43;;;;;;;19.55;10.75;;;;;;;32.40;38.26;98103.09;5066622;28;20040;-62
2023/05/16 06:01:12;;;;;;;31.75;10.68;;;;;;;32.45;39.88;98102.84;5084444;28;20047;-60
2023/05/16 06:03:42;;;;;;;24.25;11.05;;;;;;;32.20;39.98;98093.16;5082166;28;20068;-61
2023/05/16 06:06:13;;;;;;;27.40;10.90;;;;;;;32.09;39.86;98087.34;5065297;28;20044;-63
2023/05/16 06:08:43;;;;;;;25.67;10.27;;;;;;;32.25;38.03;98092.91;5083009;28;20360;-60
2023/05/16 06:11:13;;;;;;;22.08;11.43;;;;;;;32.26;38.90;98089.03;5082959;28;20048;-61
2023/05/16 06:13:42;;;;;;;25.77;11.70;;;;;;;32.30;39.79;98084.44;5083842;28;20133;-60
2023/05/16 06:16:11;;;;;;;35.35;12.80;;;;;;;32.40;39.40;98086.66;5083865;28;20040;-60
2023/05/16 06:18:41;;;;;;;25.98;12.43;;;;;;;32.43;40.79;98083.22;5066545;28;20109;-62
2023/05/16 06:21:10;;;;;;;24.48;11.68;;;;;;;32.51;36.31;98085.81;5084311;28;20078;-60
2023/05/16 06:23:40;;;;;;;29.48;11.88;;;;;;;32.52;36.41;98081.94;5083360;28;20411;-61
2023/05/16 06:26:09;;;;;;;21.73;10.30;;;;;;;32.48;38.32;98080.25;5066545;28;20044;-60
2023/05/16 06:28:39;;;;;;;23.45;10.25;;;;;;;32.50;37.57;98075.19;5085604;28;20048;-59
2023/05/16 06:31:08;;;;;;;31.55;10.15;;;;;;;32.46;35.99;98066.06;5084281;28;20048;-60
2023/05/16 06:33:37;;;;;;;19.88;9.88;;;;;;;32.73;29.86;98068.00;5085112;28;20044;-59
2023/05/16 06:36:07;;;;;;;28.00;9.48;;;;;;;32.69;36.47;98072.59;5077367;28;20047;-58
2023/05/16 06:38:36;;;;;;;25.27;9.30;;;;;;;32.66;36.22;98069.78;5085305;28;20048;-61
2023/05/16 06:41:05;;;;;;;26.38;9.25;;;;;;;32.65;35.78;98060.75;5083417;28;20594;-60
2023/05/16 06:43:35;;;;;;;20.25;9.73;;;;;;;32.63;36.19;98054.78;5085764;28;20657;-63
2023/05/16 06:46:05;;;;;;;23.40;9.75;;;;;;;32.71;36.97;98048.34;5086377;28;20048;-65
2023/05/16 06:48:34;;;;;;;24.95;10.95;;;;;;;32.67;36.25;98049.41;5081872;28;20052;-62
2023/05/16 06:51:04;;;;;;;24.05;10.23;;;;;;;32.63;37.19;98052.06;5077502;28;20053;-61
2023/05/16 06:53:34;;;;;;;18.30;8.82;;;;;;;32.75;34.26;98051.97;5078893;28;20047;-60
2023/05/16 06:56:04;;;;;;;20.70;9.32;;;;;;;32.68;35.69;98049.06;5072417;28;20058;-62
2023/05/16 06:58:33;;;;;;;22.40;9.77;;;;;;;32.71;35.62;98051.06;5075877;28;20539;-61
2023/05/16 07:01:02;;;;;;;19.45;8.35;;;;;;;32.80;35.32;98048.16;5084312;28;20044;-64
2023/05/16 07:03:32;;;;;;;21.73;9.48;;;;;;;32.84;35.35;98046.34;5083843;28;20676;-63
2023/05/16 07:06:02;;;;;;;25.08;8.35;;;;;;;32.79;35.50;98052.88;5066910;28;20793;-58
2023/05/16 07:08:37;;;;;;;28.25;8.40;;;;;;;32.76;34.39;98045.34;5648539;23;20956;31
2023/05/16 07:11:21;;;;;;;24.92;8.68;;;;;;;32.72;37.46;98044.44;5017374;28;20060;-64
2023/05/16 07:13:50;;;;;;;16.60;8.52;;;;;;;32.83;37.25;98033.75;5019107;28;20093;-62
2023/05/16 07:16:20;;;;;;;19.42;8.30;;;;;;;32.72;37.41;98028.00;5022115;28;20057;-63
2023/05/16 07:18:51;;;;;;;19.35;8.60;;;;;;;32.70;37.21;98024.81;5022153;28;20132;-62
2023/05/16 07:21:21;;;;;;;21.02;8.55;;;;;;;32.69;37.76;98025.97;5023572;28;20044;-61
2023/05/16 07:23:50;;;;;;;22.65;9.23;;;;;;;32.69;38.40;98017.75;5021488;28;20046;-63
2023/05/16 07:26:22;;;;;;;20.70;8.98;;;;;;;32.76;38.22;98020.66;5022346;28;20118;-61
2023/05/16 07:28:51;;;;;;;21.73;8.73;;;;;;;32.71;36.74;98003.66;5024440;28;20057;-61
2023/05/16 07:31:22;;;;;;;27.13;9.45;;;;;;;32.81;35.80;98005.88;5018918;28;20045;-63
2023/05/16 07:33:53;;;;;;;24.90;9.57;;;;;;;32.73;35.78;98007.66;5021157;28;20061;-65
2023/05/16 07:36:23;;;;;;;21.77;9.00;;;;;;;32.66;37.98;98004.75;5023947;28;20049;-66
2023/05/16 07:38:53;;;;;;;28.08;7.65;;;;;;;32.78;36.32;97995.63;5023497;28;20150;-64
2023/05/16 07:41:24;;;;;;;22.38;8.32;;;;;;;32.79;37.17;97998.00;5020557;28;20204;-64
2023/05/16 07:43:53;;;;;;;28.42;7.80;;;;;;;32.72;36.78;97994.28;5024534;28;20049;-65
2023/05/16 07:46:23;;;;;;;21.92;8.35;;;;;;;32.87;36.20;97982.50;5023949;28;20049;-67
2023/05/16 07:48:52;;;;;;;22.60;8.27;;;;;;;32.82;36.35;97986.31;5028338;28;20045;-63
2023/05/16 07:51:22;;;;;;;22.40;7.85;;;;;;;32.80;36.57;97985.88;5024885;28;20057;-64
2023/05/16 07:53:52;;;;;;;16.17;7.80;;;;;;;32.87;34.51;97979.78;5026742;28;20053;-64
2023/05/16 07:56:22;;;;;;;19.92;8.27;;;;;;;32.75;35.52;97979.88;5025728;28;20647;-61
2023/05/16 07:58:52;;;;;;;15.88;7.80;;;;;;;32.69;35.50;97981.28;5026189;28;20552;-64
2023/05/16 08:01:22;;;;;;;21.35;9.07;;;;;;;32.72;35.99;97975.06;5022330;28;20057;-63
2023/05/16 08:03:52;;;;;;;22.75;8.30;;;;;;;32.85;33.69;97973.81;5026951;28;20659;-61
2023/05/16 08:06:22;;;;;;;21.67;8.13;;;;;;;32.67;36.97;97967.91;5019798;28;20078;-60
2023/05/16 08:08:52;;;;;;;18.52;8.90;;;;;;;32.61;38.25;97961.09;5026190;28;20041;-61
2023/05/16 08:11:22;;;;;;;22.52;8.63;;;;;;;32.63;36.75;97977.22;5026630;28;20057;-61
2023/05/16 08:13:51;;;;;;;26.83;9.63;;;;;;;32.57;37.37;97973.94;5027105;28;20046;-61
2023/05/16 08:16:21;;;;;;;30.50;9.80;;;;;;;32.74;34.04;97967.31;5019928;28;20141;-66
2023/05/16 08:18:50;;;;;;;22.60;9.00;;;;;;;32.71;35.57;97959.75;5029549;28;20054;-63
2023/05/16 08:21:20;;;;;;;22.55;9.77;;;;;;;32.63;35.15;97963.50;5019574;28;20360;-63
2023/05/16 08:23:50;;;;;;;25.70;9.02;;;;;;;32.66;35.19;97971.03;5027781;28;20145;-60
2023/05/16 08:26:20;;;;;;;20.50;8.68;;;;;;;32.54;36.57;97967.19;5020397;28;20054;-59
2023/05/16 08:28:51;;;;;;;19.48;7.80;;;;;;;32.46;36.76;97959.94;5018273;28;20065;-63
2023/05/16 08:31:20;;;;;;;17.92;7.22;;;;;;;32.43;37.47;97962.59;5022090;28;20580;-65
2023/05/16 08:33:50;;;;;;;20.30;8.55;;;;;;;32.46;37.45;97962.69;5023276;28;20055;-59
2023/05/16 08:36:19;;;;;;;22.35;7.28;;;;;;;32.47;37.39;97956.06;5019511;28;20746;-58
2023/05/16 08:38:49;;;;;;;20.15;7.25;;;;;;;32.55;36.67;97957.03;5026880;28;20152;-64
2023/05/16 08:41:20;;;;;;;17.20;7.13;;;;;;;32.57;37.62;97952.00;5022982;28;20041;-62
2023/05/16 08:43:51;;;;;;;12.13;6.53;;;;;;;32.48;37.17;97943.16;5022951;28;20493;-61
2023/05/16 08:46:22;;;;;;;20.15;6.45;;;;;;;32.51;37.15;97945.16;5025688;28;20045;-61
2023/05/16 08:48:53;;;;;;;13.23;6.80;;;;;;;32.57;37.75;97952.00;5021883;28;20111;-60
2023/05/16 08:51:26;;;;;;;17.50;6.82;;;;;;;32.49;38.41;97956.47;5029037;28;20054;-61
2023/05/16 08:54:10;;;;;;;18.00;6.85;;;;;;;32.54;37.35;97949.94;5018269;28;20860;-61
2023/05/16 08:56:44;;;;;;;21.17;6.25;;;;;;;32.53;36.44;97937.38;5015432;28;20148;-61
2023/05/16 08:59:14;;;;;;;24.00;6.68;;;;;;;32.53;36.58;97945.59;5029264;28;20049;-61
2023/05/16 09:01:44;;;;;;;15.15;6.57;;;;;;;32.52;36.42;97950.31;5025528;28;20049;-61
2023/05/16 09:04:15;;;;;;;14.93;6.25;;;;;;;32.45;36.71;97946.56;5025483;28;20062;-61
2023/05/16 09:06:45;;;;;;;13.30;6.68;;;;;;;32.48;34.60;97940.41;5026597;28;20511;-61
2023/05/16 09:09:14;;;;;;;16.65;6.63;;;;;;;32.62;34.61;97929.00;5019725;28;20064;-60
2023/05/16 09:11:44;;;;;;;16.73;6.43;;;;;;;32.61;32.86;97930.94;5026517;28;20055;-61
2023/05/16 09:14:14;;;;;;;17.70;7.03;;;;;;;32.54;35.18;97933.47;5014005;28;20045;-60
2023/05/16 09:16:45;;;;;;;11.55;6.53;;;;;;;32.80;36.05;97925.50;5032143;28;20061;-61
2023/05/16 09:19:15;;;;;;;15.57;6.93;;;;;;;32.83;37.19;97927.56;5021483;28;20042;-61
2023/05/16 09:21:45;;;;;;;16.65;7.50;;;;;;;32.76;37.20;97921.91;5025419;28;20064;-62
2023/05/16 09:24:14;;;;;;;14.88;6.88;;;;;;;32.86;37.97;97928.78;5015771;28;20053;-61
2023/05/16 09:26:44;;;;;;;22.58;6.88;;;;;;;32.75;36.98;97922.28;5016333;28;20125;-61
2023/05/16 09:29:14;;;;;;;14.93;6.50;;;;;;;32.51;36.71;97921.28;5020479;28;20049;-63
2023/05/16 09:31:43;;;;;;;14.63;6.10;;;;;;;32.37;36.33;97926.44;5025062;28;20060;-61
2023/05/16 09:34:13;;;;;;;13.52;6.25;;;;;;;32.33;36.57;97922.81;5023065;28;20056;-61
2023/05/16 09:36:42;;;;;;;24.73;5.85;;;;;;;32.31;37.75;97921.56;5026670;28;20135;-62
2023/05/16 09:39:15;;;;;;;12.18;5.38;;;;;;;32.33;36.32;97919.25;5018302;28;20053;-63
2023/05/16 09:41:45;;;;;;;16.65;6.00;;;;;;;32.26;36.79;97914.41;5024445;28;20056;-62
2023/05/16 09:44:17;;;;;;;12.60;5.47;;;;;;;32.32;35.85;97909.44;5008207;28;20504;-62
2023/05/16 09:46:47;;;;;;;14.45;6.45;;;;;;;32.30;36.28;97904.34;5016112;28;20056;-64
2023/05/16 09:49:17;;;;;;;18.95;7.38;;;;;;;32.32;37.69;97902.00;5024515;28;20081;-65
2023/05/16 09:51:47;;;;;;;30.92;8.57;;;;;;;32.21;37.20;97908.38;5014911;28;20566;-63
2023/05/16 09:54:29;;;;;;;25.08;8.80;;;;;;;32.15;38.03;97905.13;5001990;28;20050;-63
2023/05/16 09:56:59;;;;;;;24.67;8.60;;;;;;;32.09;37.93;97910.06;5012717;28;20056;-67
2023/05/16 09:59:34;;;;;;;21.95;7.93;;;;;;;32.13;37.72;97903.88;5013063;28;20045;-65
2023/05/16 10:02:06;;;;;;;16.17;7.50;;;;;;;32.05;38.51;97898.19;5016632;28;20680;-63
2023/05/16 10:04:37;;;;;;;20.05;7.68;;;;;;;32.10;37.87;97905.38;5019501;28;20045;-65
2023/05/16 10:07:08;;;;;;;24.38;7.43;;;;;;;31.92;38.11;97904.09;5018519;28;20041;-63
2023/05/16 10:09:40;;;;;;;23.02;7.15;;;;;;;31.91;37.64;97892.31;5019074;28;20317;-64
2023/05/16 10:12:12;;;;;;;27.58;7.13;;;;;;;31.90;37.87;97896.22;5003527;28;20120;-64
2023/05/16 10:14:45;;;;;;;24.48;7.95;;;;;;;31.85;37.32;97893.75;4990610;28;20377;-66
2023/05/16 10:17:16;;;;;;;23.75;7.25;;;;;;;31.86;36.29;97894.53;5012177;28;20045;-64
2023/05/16 10:19:46;;;;;;;30.30;6.45;;;;;;;32.00;34.60;97895.69;5016002;28;20068;-66
2023/05/16 10:22:18;;;;;;;21.52;6.03;;;;;;;32.64;30.20;97883.63;5017693;28;20037;-67
2023/05/16 10:25:07;;;;;;;25.08;5.90;;;;;;;32.94;32.43;97878.41;5016432;28;20069;-64
2023/05/16 10:27:39;;;;;;;28.67;6.35;;;;;;;32.98;33.36;97880.06;5018788;28;20068;-63
2023/05/16 10:30:11;;;;;;;13.40;5.57;;;;;;;33.19;30.87;97876.22;5009462;28;20437;-64
2023/05/16 10:32:41;;;;;;;26.33;7.38;;;;;;;33.38;27.75;97878.97;5007146;28;20063;-66
2023/05/16 10:35:11;;;;;;;25.65;6.03;;;;;;;33.24;31.87;97873.19;5011306;28;20052;-66
2023/05/16 10:37:42;;;;;;;26.10;5.78;;;;;;;33.21;31.13;97866.47;5013537;28;20050;-65
2023/05/16 10:40:13;;;;;;;16.08;5.80;;;;;;;33.19;31.66;97874.28;5011071;28;20156;-67
2023/05/16 10:43:00;;;;;;;20.63;4.53;;;;;;;33.65;26.98;97871.63;4668271;28;10000131;-64
2023/05/16 10:45:30;;;;;;;18.42;5.50;;;;;;;33.52;31.95;97873.75;5000325;28;20069;-63
2023/05/16 10:48:04;;;;;;;16.75;4.65;;;;;;;33.26;33.17;97879.91;5012112;28;20053;-61
2023/05/16 10:50:42;;;;;;;31.48;5.05;;;;;;;33.54;27.01;97884.38;5016169;28;20145;-61
2023/05/16 10:53:35;;;;;;;17.67;5.20;;;;;;;32.84;29.99;97882.50;5008365;28;20041;-64
2023/05/16 10:56:09;;;;;;;20.25;7.45;;;;;;;33.01;28.20;97881.31;5012195;28;20049;-64
2023/05/16 10:58:43;;;;;;;14.40;5.22;;;;;;;33.02;27.69;97874.66;5025636;28;20496;-62
2023/05/16 11:01:28;;;;;;;16.38;5.63;;;;;;;33.07;32.85;97876.31;5012510;28;20045;-62
2023/05/16 11:03:59;;;;;;;13.75;6.30;;;;;;;32.58;31.49;97893.22;5007949;28;20764;-63
2023/05/16 11:06:41;;;;;;;17.98;5.70;;;;;;;32.61;29.21;97892.53;4999670;28;20575;-63
2023/05/16 11:09:16;;;;;;;11.77;4.60;;;;;;;32.84;26.66;97887.22;5013217;28;20045;-63
2023/05/16 11:11:53;;;;;;;12.95;4.65;;;;;;;32.93;31.46;97888.56;5010254;28;20056;-63
2023/05/16 11:14:24;;;;;;;15.80;5.13;;;;;;;32.89;27.11;97884.97;5003601;28;20125;-61
2023/05/16 11:17:19;;;;;;;11.05;4.90;;;;;;;32.92;27.81;97883.47;5011782;28;20045;-63
2023/05/16 11:19:50;;;;;;;15.82;5.60;;;;;;;32.94;28.42;97881.94;5015096;28;20073;-64
2023/05/16 11:22:33;;;;;;;17.73;5.47;;;;;;;32.75;26.20;97886.63;5010270;28;20597;-62
2023/05/16 11:25:12;;;;;;;19.40;4.75;;;;;;;33.09;27.45;97885.00;5012488;28;20049;-64
2023/05/16 11:27:46;;;;;;;16.95;6.18;;;;;;;32.96;30.64;97887.88;5015473;28;20676;-61
2023/05/16 11:30:18;;;;;;;12.63;4.63;;;;;;;32.86;28.00;97880.19;5013184;28;20056;-63
2023/05/16 11:32:49;;;;;;;16.48;5.07;;;;;;;32.58;29.82;97886.94;5009379;28;20049;-63
2023/05/16 11:35:18;;;;;;;18.00;4.88;;;;;;;33.19;24.70;97885.25;5010501;28;20508;-61
2023/05/16 11:37:49;;;;;;;9.32;5.10;;;;;;;32.74;30.52;97882.28;5002112;28;20123;-64